Time;durP1;ratioP1;P1;durP2;ratioP2;P2;SDS_P1;SDS_P2;PMS_P1;PMS_P2;Temp;Humidity;BMP_temperature;BMP_pressure;BME280_temperature;BME280_humidity;BME280_pressure;Samples;Min_cycle;Max_cycle;Signal;HPM_P1;HPM_P2
2022/01/14 00:01:59;;;;;;;61.43;31.80;;;4.30;1.00;5.10;102626.00;;;;5018524;28;20485;-80
2022/01/14 00:04:29;;;;;;;61.37;33.23;;;4.30;1.00;5.10;102624.00;;;;5019068;28;20453;-80
2022/01/14 00:07:04;;;;;;;55.43;33.27;;;4.40;1.00;5.20;102612.00;;;;5032830;28;20535;-80
2022/01/14 00:09:38;;;;;;;54.43;31.40;;;4.60;1.00;5.20;102605.00;;;;5021380;28;20452;-80
2022/01/14 00:12:15;;;;;;;54.30;29.90;;;4.70;1.00;5.30;102609.00;;;;5020852;28;20511;-81
2022/01/14 00:14:56;;;;;;;60.30;32.50;;;4.70;1.00;5.30;67427.00;;;;5039201;28;20488;-80
2022/01/14 00:17:24;;;;;;;61.73;33.60;;;4.80;1.00;5.20;67410.00;;;;5022009;28;20840;-79
2022/01/14 00:19:54;;;;;;;61.03;31.83;;;4.80;1.00;5.20;67410.00;;;;5021349;28;21052;-81
2022/01/14 00:22:24;;;;;;;59.27;31.77;;;4.50;1.00;5.20;102599.00;;;;5023217;28;20469;-80
2022/01/14 00:33:16;;;;;;;60.40;31.97;;;4.40;1.00;5.10;102588.00;;;;4999897;28;20453;-80
2022/01/14 00:35:46;;;;;;;60.27;30.87;;;4.50;1.00;5.20;102593.00;;;;5027810;28;20449;-79
2022/01/14 00:38:14;;;;;;;68.40;33.63;;;4.50;1.00;5.10;67390.00;;;;5028466;28;20541;-80
2022/01/14 00:40:44;;;;;;;68.77;33.80;;;4.80;1.00;5.20;102572.00;;;;5030782;28;20457;-80
2022/01/14 00:43:13;;;;;;;66.23;32.50;;;4.50;1.00;5.10;67390.00;;;;5030716;28;20449;-80
2022/01/14 00:45:42;;;;;;;89.93;37.50;;;4.50;1.00;5.10;67390.00;;;;5033135;28;20449;-81
2022/01/14 00:48:10;;;;;;;94.17;37.73;;;4.50;1.00;5.00;67362.00;;;;5033171;28;21028;-82
2022/01/14 00:50:41;;;;;;;122.80;37.97;;;4.40;1.00;4.90;67335.00;;;;5034984;28;20459;-80
2022/01/14 00:53:17;;;;;;;80.73;39.60;;;3.90;1.00;4.80;67314.00;;;;5033411;28;20865;-80
2022/01/14 00:55:54;;;;;;;77.03;35.50;;;3.80;1.00;4.80;67319.00;;;;5032906;28;20440;-81
2022/01/14 01:01:08;;;;;;;92.73;38.93;;;4.10;1.00;4.90;102565.00;;;;5035519;28;20472;-80
2022/01/14 01:03:37;;;;;;;87.90;38.43;;;4.10;1.00;4.80;67328.00;;;;5034059;28;20543;-80
2022/01/14 01:06:06;;;;;;;78.40;37.20;;;3.90;1.00;4.80;67327.00;;;;5031322;28;21309;-79
2022/01/14 01:08:37;;;;;;;77.63;36.10;;;3.80;1.00;4.90;67339.00;;;;5021432;28;20484;-79
2022/01/14 01:11:09;;;;;;;77.43;37.90;;;4.00;1.00;217.30;158826.00;;;;5022890;28;20472;-79
2022/01/14 01:13:43;;;;;;;102.40;37.90;;;4.20;1.00;5.00;67373.00;;;;5019771;28;20469;-79
2022/01/14 01:16:11;;;;;;;75.70;36.47;;;4.30;1.00;5.10;102554.00;;;;5026999;28;20460;-79
2022/01/14 01:18:39;;;;;;;80.93;37.40;;;4.40;1.00;5.10;102558.00;;;;5027904;28;20460;-79
2022/01/14 01:21:09;;;;;;;82.13;36.47;;;4.40;1.00;5.10;67378.00;;;;5023603;28;20489;-79
2022/01/14 01:23:38;;;;;;;96.83;39.67;;;4.40;1.00;5.00;102569.00;;;;5040184;28;20819;-79
2022/01/14 01:26:15;;;;;;;94.30;37.53;;;4.30;1.00;5.00;102554.00;;;;5037162;28;20467;-79
2022/01/14 01:28:57;;;;;;;95.20;39.00;;;4.30;1.00;4.90;102547.00;;;;5019824;28;20497;-79
2022/01/14 01:31:38;;;;;;;95.87;38.73;;;4.20;1.00;4.80;67322.00;;;;5023993;28;20491;-79
2022/01/14 01:34:10;;;;;;;100.63;39.40;;;4.20;1.00;217.30;158726.00;;;;5020303;28;20487;-80
2022/01/14 01:36:40;;;;;;;105.70;39.87;;;4.00;1.00;4.70;102547.00;;;;5018781;28;20457;-79
2022/01/14 01:39:13;;;;;;;89.63;36.70;;;4.00;1.00;4.70;102560.00;;;;5017097;28;20453;-79
2022/01/14 01:41:48;;;;;;;87.40;37.13;;;4.00;1.00;4.60;102560.00;;;;5019949;28;21143;-79
2022/01/14 01:44:21;;;;;;;87.93;38.63;;;4.00;1.00;4.60;102562.00;;;;5023918;28;20453;-80
2022/01/14 01:46:52;;;;;;;92.87;37.03;;;3.90;1.00;52.70;158665.00;;;;5037656;28;21299;-79
2022/01/14 01:49:34;;;;;;;90.43;37.20;;;3.90;1.00;4.60;102552.00;;;;5025101;28;20476;-79
2022/01/14 01:52:04;;;;;;;140.87;40.20;;;3.90;1.00;4.50;102563.00;;;;5025725;28;20469;-79
2022/01/14 01:54:34;;;;;;;143.10;40.00;;;3.80;1.00;4.50;102556.00;;;;5027416;28;20503;-79
2022/01/14 01:57:03;;;;;;;120.97;38.53;;;3.70;1.00;4.50;102561.00;;;;5020247;28;20453;-79
2022/01/14 01:59:32;;;;;;;79.10;35.63;;;3.80;1.00;4.70;67288.00;;;;5028920;28;20453;-80
2022/01/14 02:02:02;;;;;;;87.03;35.60;;;4.00;1.00;4.70;102545.00;;;;5018997;28;20993;-79
2022/01/14 02:04:31;;;;;;;93.17;36.60;;;4.10;1.00;4.70;102536.00;;;;5030583;28;20457;-80
2022/01/14 02:06:59;;;;;;;90.80;36.27;;;4.00;1.00;4.70;102540.00;;;;5033566;28;20480;-79
2022/01/14 02:09:28;;;;;;;86.20;34.07;;;4.00;1.00;4.70;67288.00;;;;5020157;28;20492;-79
2022/01/14 02:11:57;;;;;;;106.27;36.80;;;4.00;1.00;4.60;67263.00;;;;5042051;28;20504;-80
2022/01/14 02:14:40;;;;;;;81.17;35.37;;;4.00;1.00;4.50;102546.00;;;;5019794;28;20452;-79
2022/01/14 02:17:29;;;;;;;113.07;37.20;;;3.80;1.00;4.50;102527.00;;;;5040448;28;20436;-79
2022/01/14 02:22:51;;;;;;;96.00;35.13;;;3.90;1.00;4.70;67300.00;;;;5018081;28;20563;-79
2022/01/14 02:25:28;;;;;;;150.97;35.60;;;4.00;1.00;4.70;102527.00;;;;5018570;28;21049;-79
2022/01/14 02:28:00;;;;;;;89.23;35.60;;;4.00;1.00;4.70;102533.00;;;;5020980;28;21040;-77
2022/01/14 02:30:30;;;;;;;77.03;32.10;;;4.00;1.00;217.30;158671.00;;;;5023716;28;20464;-79
2022/01/14 02:32:59;;;;;;;105.17;33.40;;;3.90;1.00;4.50;102526.00;;;;5018916;28;20458;-79
2022/01/14 02:35:30;;;;;;;133.93;35.40;;;3.80;1.00;4.50;102527.00;;;;5017579;28;20453;-80
2022/01/14 02:37:58;;;;;;;137.47;38.77;;;3.80;1.00;4.40;102524.00;;;;5015290;28;20453;-80
2022/01/14 02:40:28;;;;;;;203.87;39.30;;;3.70;1.00;4.40;102529.00;;;;5015519;28;20458;-80
2022/01/14 02:43:00;;;;;;;133.43;35.20;;;3.70;1.00;4.40;102512.00;;;;5013763;28;20456;-80
2022/01/14 02:45:31;;;;;;;104.67;34.43;;;3.70;1.00;4.50;102507.00;;;;5013147;28;20452;-79
2022/01/14 02:48:01;;;;;;;89.23;34.20;;;3.80;1.00;4.50;102522.00;;;;5010939;28;20985;-80
2022/01/14 02:50:38;;;;;;;181.40;38.03;;;3.80;1.00;4.60;102505.00;;;;5010319;28;20460;-79
2022/01/14 02:53:24;;;;;;;188.30;37.47;;;3.80;1.00;4.50;102510.00;;;;5012059;28;20620;-79
2022/01/14 02:55:56;;;;;;;108.43;35.37;;;3.80;1.00;4.50;102504.00;;;;5012729;28;20827;-79
2022/01/14 02:58:27;;;;;;;126.40;35.93;;;3.80;1.00;4.60;102507.00;;;;5012948;28;20511;-79
2022/01/14 03:01:02;;;;;;;170.43;37.20;;;3.80;1.00;4.60;102492.00;;;;5009849;28;20480;-78
2022/01/14 03:03:32;;;;;;;132.23;35.00;;;3.90;1.00;4.60;102497.00;;;;5018194;28;20438;-78
2022/01/14 03:06:04;;;;;;;190.53;36.17;;;3.90;1.00;4.60;102505.00;;;;5010183;28;20461;-79
2022/01/14 03:08:34;;;;;;;90.00;32.60;;;3.90;1.00;4.60;102497.00;;;;5017665;28;20477;-79
2022/01/14 03:11:09;;;;;;;183.90;37.07;;;3.90;1.00;4.70;102496.00;;;;5022000;28;20481;-78
2022/01/14 03:13:38;;;;;;;168.07;36.70;;;4.00;1.00;4.60;102498.00;;;;5023365;28;20456;-78
2022/01/14 03:16:06;;;;;;;120.43;32.40;;;3.90;1.00;4.60;102504.00;;;;5020610;28;20954;-79
2022/01/14 03:18:42;;;;;;;177.80;36.57;;;3.80;1.00;4.50;102495.00;;;;5011966;28;20528;-79
2022/01/14 03:21:13;;;;;;;150.37;32.90;;;3.80;1.00;4.40;102498.00;;;;5014247;28;20469;-79
2022/01/14 03:23:47;;;;;;;293.73;40.33;;;3.80;1.00;4.40;102497.00;;;;5012810;28;20454;-78
2022/01/14 03:26:17;;;;;;;301.40;40.93;;;3.70;1.00;4.40;102498.00;;;;5010515;28;20458;-78
2022/01/14 03:28:46;;;;;;;226.20;40.97;;;3.70;1.00;4.40;102500.00;;;;5010181;28;20498;-78
2022/01/14 03:31:15;;;;;;;121.20;32.30;;;3.70;1.00;4.40;102502.00;;;;5007136;28;20555;-78
2022/01/14 03:33:43;;;;;;;106.47;31.97;;;3.80;1.00;4.50;102502.00;;;;5012662;28;20473;-78
2022/01/14 03:36:13;;;;;;;95.27;32.00;;;3.80;1.00;4.60;102356.00;;;;5010075;28;20470;-78
2022/01/14 03:38:41;;;;;;;142.37;29.33;;;3.80;1.00;4.50;102493.00;;;;5034832;28;20468;-78
2022/01/14 03:41:09;;;;;;;106.37;30.60;;;3.80;1.00;4.50;102492.00;;;;5011782;28;20488;-78
2022/01/14 03:43:40;;;;;;;115.33;32.60;;;3.80;1.00;217.30;158556.00;;;;5028196;28;20453;-78
2022/01/14 03:46:09;;;;;;;118.90;30.03;;;3.70;1.00;4.40;102485.00;;;;5012403;28;21576;-78
2022/01/14 03:48:37;;;;;;;246.10;36.30;;;3.70;1.00;4.40;102497.00;;;;5014104;28;20496;-78
2022/01/14 03:51:06;;;;;;;175.17;33.70;;;3.70;1.00;4.40;102503.00;;;;5017024;28;21240;-79
2022/01/14 03:53:36;;;;;;;173.53;33.93;;;3.70;1.00;4.40;102486.00;;;;5018127;28;20452;-79
2022/01/14 03:56:05;;;;;;;168.23;34.23;;;3.80;1.00;4.40;102484.00;;;;5016017;28;20464;-79
2022/01/14 03:58:40;;;;;;;131.63;31.13;;;3.70;1.00;4.40;102493.00;;;;5013885;28;21241;-79
2022/01/14 04:01:08;;;;;;;162.77;32.07;;;3.70;1.00;217.30;158562.00;;;;5010952;28;20470;-79
2022/01/14 04:03:37;;;;;;;129.93;31.07;;;3.70;1.00;4.40;102478.00;;;;5015288;28;20460;-79
2022/01/14 04:06:06;;;;;;;125.93;32.90;;;3.60;1.00;4.40;102462.00;;;;5014718;28;20477;-79
2022/01/14 04:08:36;;;;;;;100.97;28.00;;;3.70;1.00;4.40;102463.00;;;;5016743;28;20488;-79
2022/01/14 04:11:05;;;;;;;191.53;33.57;;;3.70;1.00;4.30;102464.00;;;;5009796;28;20537;-79
2022/01/14 04:13:43;;;;;;;151.47;29.73;;;3.60;1.00;4.20;102477.00;;;;5013251;28;21036;-79
2022/01/14 04:16:12;;;;;;;214.03;33.80;;;3.50;1.00;4.10;102466.00;;;;5012391;28;20465;-80
2022/01/14 04:18:41;;;;;;;123.27;29.50;;;3.40;1.00;4.10;102479.00;;;;5009912;28;20468;-78
2022/01/14 04:21:10;;;;;;;132.33;29.20;;;3.40;1.00;4.20;102471.00;;;;5014327;28;20489;-79
2022/01/14 04:23:40;;;;;;;182.87;33.60;;;3.40;1.00;4.20;102457.00;;;;5013424;28;20543;-79
2022/01/14 04:26:08;;;;;;;143.17;29.73;;;3.50;1.00;4.20;102463.00;;;;5013031;28;20458;-79
2022/01/14 04:28:36;;;;;;;143.60;29.50;;;3.50;1.00;4.20;102462.00;;;;5013090;28;20481;-79
2022/01/14 04:31:06;;;;;;;148.20;30.50;;;3.40;1.00;4.10;102454.00;;;;5020371;28;20473;-79
2022/01/14 04:33:35;;;;;;;104.20;25.57;;;3.40;1.00;4.00;102443.00;;;;5028894;28;20492;-79
2022/01/14 04:36:05;;;;;;;141.07;27.53;;;3.30;1.00;3.90;102437.00;;;;5029235;28;20943;-80
2022/01/14 04:38:34;;;;;;;89.13;23.73;;;3.20;1.00;3.80;102443.00;;;;5017369;28;20468;-80
2022/01/14 04:41:04;;;;;;;85.70;24.03;;;3.20;1.00;3.70;102444.00;;;;5016451;28;20488;-80
2022/01/14 04:43:33;;;;;;;89.13;24.40;;;3.00;1.00;3.70;102443.00;;;;5015978;28;20575;-80
2022/01/14 04:46:35;;;;;;;90.87;23.90;;;3.10;1.00;3.80;67091.00;;;;5027902;28;20457;-80
2022/01/14 04:49:02;;;;;;;71.73;23.43;;;3.00;1.00;3.70;102422.00;;;;5035769;28;20472;-80
2022/01/14 04:51:31;;;;;;;152.43;27.33;;;3.00;1.00;217.30;158219.00;;;;5033865;28;20478;-80
2022/01/14 04:53:59;;;;;;;78.90;24.30;;;2.90;1.00;3.60;102433.00;;;;5020227;28;20476;-80
2022/01/14 04:56:34;;;;;;;84.63;23.20;;;2.90;1.00;52.70;158209.00;;;;5020066;28;20456;-80
2022/01/14 04:59:02;;;;;;;84.07;22.77;;;2.90;1.00;3.60;102416.00;;;;5029270;28;20470;-79
2022/01/14 05:01:32;;;;;;;69.67;21.23;;;2.90;1.00;3.60;102414.00;;;;5029967;28;20492;-79
2022/01/14 05:04:00;;;;;;;63.40;23.33;;;2.90;1.00;3.70;102426.00;;;;5030925;28;21103;-80
2022/01/14 05:06:29;;;;;;;57.83;21.73;;;2.90;1.00;3.70;102427.00;;;;5030849;28;20457;-79
2022/01/14 05:08:58;;;;;;;68.03;23.00;;;3.00;1.00;3.80;102407.00;;;;5022715;28;20973;-79
2022/01/14 05:11:37;;;;;;;63.53;21.20;;;3.10;1.00;3.90;67112.00;;;;5020833;28;20479;-79
2022/01/14 05:14:07;;;;;;;43.50;19.57;;;3.10;1.00;3.90;102251.00;;;;5017838;28;20470;-79
2022/01/14 05:16:35;;;;;;;49.37;17.70;;;3.20;1.00;4.00;102408.00;;;;5017990;28;20891;-78
2022/01/14 05:19:04;;;;;;;63.70;20.10;;;3.20;1.00;3.90;102421.00;;;;5016409;28;20464;-78
2022/01/14 05:21:32;;;;;;;73.07;20.57;;;3.20;1.00;3.80;102424.00;;;;5016176;28;20492;-79
2022/01/14 05:24:00;;;;;;;58.10;20.83;;;3.30;1.00;3.90;102440.00;;;;5011936;28;20456;-80
2022/01/14 05:26:28;;;;;;;49.07;19.30;;;2.90;1.00;3.90;102418.00;;;;5037425;28;20461;-79
2022/01/14 05:28:57;;;;;;;62.20;21.50;;;3.20;1.00;3.90;102419.00;;;;5017112;28;20457;-79
2022/01/14 05:31:46;;;;;;;45.27;20.20;;;3.10;1.00;3.90;102414.00;;;;5044133;28;20481;-79
2022/01/14 05:34:14;;;;;;;54.97;18.60;;;3.20;1.00;3.90;102419.00;;;;5028326;28;20457;-78
2022/01/14 05:36:43;;;;;;;57.30;19.27;;;3.10;1.00;3.80;102425.00;;;;5018533;28;20460;-79
2022/01/14 05:39:12;;;;;;;54.23;21.60;;;2.90;1.00;3.70;102423.00;;;;5013026;28;20472;-79
2022/01/14 05:41:40;;;;;;;58.03;21.43;;;3.00;1.00;3.60;102397.00;;;;5014174;28;20477;-78
2022/01/14 05:44:09;;;;;;;40.90;17.73;;;2.90;1.00;3.60;67046.00;;;;5018230;28;20477;-79
2022/01/14 05:46:37;;;;;;;53.80;18.17;;;2.80;1.00;3.60;102417.00;;;;5013418;28;20467;-78
2022/01/14 05:49:07;;;;;;;44.60;18.80;;;2.80;1.00;3.60;102408.00;;;;5013949;28;20453;-79
2022/01/14 05:51:35;;;;;;;49.13;18.30;;;2.80;1.00;3.60;102406.00;;;;5015735;28;20818;-79
2022/01/14 05:54:04;;;;;;;44.27;17.47;;;2.80;1.00;3.50;102412.00;;;;5012243;28;20994;-79
2022/01/14 05:56:33;;;;;;;42.07;18.87;;;2.80;1.00;3.40;67016.00;;;;5014304;28;20979;-79
2022/01/14 05:59:01;;;;;;;45.33;17.60;;;2.70;1.00;3.50;102408.00;;;;5020155;28;20572;-79
2022/01/14 06:01:30;;;;;;;43.07;19.57;;;2.70;1.00;3.50;102428.00;;;;5021599;28;20484;-79
2022/01/14 06:03:59;;;;;;;45.00;18.47;;;2.80;1.00;3.50;102416.00;;;;5028095;28;20452;-79
2022/01/14 06:06:29;;;;;;;45.43;18.20;;;2.70;1.00;3.50;102416.00;;;;5016788;28;20457;-79
2022/01/14 06:08:57;;;;;;;44.00;18.60;;;2.70;1.00;3.60;102425.00;;;;5016694;28;20457;-79
2022/01/14 06:11:26;;;;;;;45.73;20.03;;;2.80;1.00;3.70;67082.00;;;;5016061;28;20483;-78
2022/01/14 06:13:55;;;;;;;43.90;18.60;;;3.00;1.00;217.30;158324.00;;;;5017598;28;20851;-79
2022/01/14 06:16:23;;;;;;;44.17;19.47;;;3.10;1.00;3.80;102440.00;;;;5016970;28;20461;-79
2022/01/14 06:18:52;;;;;;;62.50;20.20;;;3.20;1.00;217.30;158298.00;;;;5018037;28;20464;-79
2022/01/14 06:21:20;;;;;;;39.27;19.27;;;3.10;1.00;-80.10;215395.00;;;;5015307;28;20480;-79
2022/01/14 06:23:50;;;;;;;40.80;18.80;;;3.10;1.00;3.90;102431.00;;;;5016257;28;20457;-79
2022/01/14 06:26:23;;;;;;;40.50;18.53;;;3.20;1.00;3.90;67127.00;;;;5016208;28;20472;-80
2022/01/14 06:28:52;;;;;;;35.30;18.23;;;3.20;1.00;3.90;102414.00;;;;5014761;28;20465;-78
2022/01/14 06:31:21;;;;;;;54.17;19.10;;;3.10;1.00;3.80;102408.00;;;;5015582;28;20566;-78
2022/01/14 06:33:49;;;;;;;39.70;20.17;;;3.10;1.00;3.80;102400.00;;;;5012098;28;20446;-78
2022/01/14 06:36:18;;;;;;;51.17;19.57;;;3.10;1.00;3.70;102405.00;;;;5017358;28;20445;-79
2022/01/14 06:38:46;;;;;;;43.00;20.00;;;3.10;1.00;3.70;102412.00;;;;5017574;28;20449;-79
2022/01/14 06:41:16;;;;;;;38.40;19.33;;;3.00;1.00;3.80;102432.00;;;;5020916;28;20581;-80
2022/01/14 06:43:45;;;;;;;39.63;18.90;;;3.10;1.00;3.80;102422.00;;;;5017482;28;20844;-79
2022/01/14 06:46:13;;;;;;;40.30;18.47;;;3.30;1.00;3.80;102437.00;;;;5015511;28;20533;-79
2022/01/14 06:48:42;;;;;;;45.13;19.10;;;3.10;1.00;3.80;102426.00;;;;5039116;28;20462;-79
2022/01/14 06:51:15;;;;;;;41.03;19.57;;;3.10;1.00;3.80;102429.00;;;;5014931;28;20504;-79
2022/01/14 06:53:46;;;;;;;37.23;18.43;;;3.00;1.00;3.80;102434.00;;;;5016843;28;20465;-79
2022/01/14 06:56:17;;;;;;;46.57;18.10;;;3.10;1.00;3.80;102418.00;;;;5019435;28;20464;-80
2022/01/14 06:58:45;;;;;;;47.50;19.17;;;3.00;1.00;3.70;102427.00;;;;5018261;28;20448;-80
2022/01/14 07:01:14;;;;;;;34.00;17.73;;;2.90;1.00;52.70;158203.00;;;;5015744;28;20472;-79
2022/01/14 07:03:43;;;;;;;41.67;20.03;;;2.80;1.00;3.40;102422.00;;;;5037637;28;20453;-79
2022/01/14 07:06:11;;;;;;;37.80;17.43;;;2.80;1.00;3.40;102419.00;;;;5014424;28;20452;-79
2022/01/14 07:08:39;;;;;;;40.30;18.20;;;2.70;1.00;3.40;102431.00;;;;5016753;28;20812;-79
2022/01/14 07:11:08;;;;;;;41.43;18.93;;;2.70;1.00;3.40;102439.00;;;;5017149;28;20496;-79
2022/01/14 07:13:38;;;;;;;37.37;17.40;;;2.70;1.00;3.60;102418.00;;;;5017074;28;20456;-79
2022/01/14 07:16:07;;;;;;;44.07;18.03;;;3.10;1.00;3.60;102426.00;;;;5016157;28;20905;-79
2022/01/14 07:18:35;;;;;;;35.50;18.90;;;2.90;1.00;3.50;102428.00;;;;5015412;28;20449;-79
2022/01/14 07:21:04;;;;;;;41.80;19.90;;;2.80;1.00;3.50;102431.00;;;;5015422;28;20493;-78
2022/01/14 07:23:32;;;;;;;34.57;17.53;;;2.80;1.00;3.50;67025.00;;;;5016926;28;20453;-78
2022/01/14 07:26:00;;;;;;;45.03;18.17;;;2.80;1.00;3.50;102431.00;;;;5031469;28;20469;-79
2022/01/14 07:28:28;;;;;;;39.77;18.67;;;2.70;1.00;3.40;102429.00;;;;5016636;28;20679;-79
2022/01/14 07:30:58;;;;;;;36.53;16.63;;;2.70;1.00;3.40;102419.00;;;;5016266;28;20491;-78
2022/01/14 07:33:26;;;;;;;43.33;18.47;;;2.70;1.00;217.30;158118.00;;;;5016604;28;20540;-78
2022/01/14 07:35:55;;;;;;;35.70;17.30;;;2.70;1.00;3.30;102427.00;;;;5016045;28;20457;-78
2022/01/14 07:38:24;;;;;;;38.63;16.70;;;2.60;1.00;217.30;158092.00;;;;5016347;28;20820;-80
2022/01/14 07:40:52;;;;;;;37.83;18.93;;;2.60;1.00;3.40;66998.00;;;;5019328;28;21013;-79
2022/01/14 07:43:21;;;;;;;33.50;16.77;;;2.60;1.00;3.50;102444.00;;;;5020114;28;20453;-78
2022/01/14 07:45:49;;;;;;;36.10;18.80;;;2.70;1.00;3.70;102442.00;;;;5016683;28;20496;-78
2022/01/14 07:48:19;;;;;;;35.97;16.67;;;2.90;1.00;3.60;102445.00;;;;5016939;28;20476;-79
2022/01/14 07:50:48;;;;;;;30.60;15.87;;;3.00;1.00;3.70;102447.00;;;;5024006;28;20485;-79
2022/01/14 07:53:17;;;;;;;34.67;17.83;;;2.90;1.00;3.70;102450.00;;;;5018083;28;20785;-79
2022/01/14 07:55:45;;;;;;;37.77;17.50;;;2.90;1.00;3.60;102443.00;;;;5016096;28;20449;-79
2022/01/14 07:58:14;;;;;;;34.00;17.60;;;2.90;1.00;3.50;102450.00;;;;5024034;28;20500;-78
2022/01/14 08:00:43;;;;;;;45.67;17.60;;;2.80;1.00;3.40;67008.00;;;;5015026;28;20477;-78
2022/01/14 08:03:12;;;;;;;44.83;18.00;;;2.70;1.00;217.30;158080.00;;;;5017850;28;20461;-79
2022/01/14 08:05:42;;;;;;;45.57;20.50;;;2.60;1.00;3.30;102435.00;;;;5018500;28;20468;-78
2022/01/14 08:08:10;;;;;;;43.73;19.70;;;2.80;1.00;3.40;102433.00;;;;5018705;28;20469;-78
2022/01/14 08:10:39;;;;;;;38.20;19.00;;;2.70;1.00;3.40;102441.00;;;;5019132;28;20512;-78
2022/01/14 08:13:07;;;;;;;36.63;18.23;;;2.70;1.00;3.40;67008.00;;;;5023549;28;20457;-79
2022/01/14 08:15:35;;;;;;;37.13;18.80;;;2.70;1.00;3.50;102422.00;;;;5023222;28;20468;-80
2022/01/14 08:18:06;;;;;;;35.30;18.60;;;2.80;1.00;3.60;102415.00;;;;5019863;28;20461;-78
2022/01/14 08:20:34;;;;;;;31.43;16.60;;;2.80;1.00;3.70;102415.00;;;;5020017;28;20524;-79
2022/01/14 08:23:04;;;;;;;31.00;17.23;;;2.90;1.00;3.70;102400.00;;;;5016254;28;20479;-78
2022/01/14 08:25:36;;;;;;;31.90;15.63;;;3.00;1.00;217.30;158245.00;;;;5016532;28;21029;-78
2022/01/14 08:28:06;;;;;;;31.17;17.47;;;2.90;1.00;3.70;102418.00;;;;5015858;28;20450;-78
2022/01/14 08:30:34;;;;;;;32.23;17.03;;;3.00;1.00;3.70;102422.00;;;;5015835;28;20454;-78
2022/01/14 08:33:02;;;;;;;30.00;15.63;;;3.00;1.00;3.80;102420.00;;;;5016414;28;20487;-80
2022/01/14 08:35:31;;;;;;;32.70;16.30;;;3.20;1.00;3.80;102430.00;;;;5015922;28;20460;-79
2022/01/14 08:37:59;;;;;;;31.70;16.40;;;3.10;1.00;3.70;102422.00;;;;5037087;28;20477;-79
2022/01/14 08:40:29;;;;;;;31.97;16.43;;;3.00;1.00;3.70;102419.00;;;;5018348;28;20459;-79
2022/01/14 08:42:57;;;;;;;32.53;16.67;;;3.00;1.00;217.30;158251.00;;;;5021891;28;20453;-79
2022/01/14 08:45:26;;;;;;;30.87;16.23;;;3.00;1.00;3.70;102437.00;;;;5026271;28;20452;-77
2022/01/14 08:47:56;;;;;;;35.13;17.27;;;3.00;1.00;3.60;102427.00;;;;5032051;28;20460;-80
2022/01/14 08:50:28;;;;;;;33.50;16.90;;;2.90;1.00;3.60;102426.00;;;;5052984;28;20457;-80
2022/01/14 08:52:59;;;;;;;28.47;15.30;;;2.90;1.00;3.70;102423.00;;;;5028568;28;20483;-79
2022/01/14 08:55:29;;;;;;;28.23;13.37;;;3.00;1.00;3.70;102431.00;;;;5026111;28;20450;-79
2022/01/14 08:57:57;;;;;;;32.73;16.30;;;3.10;1.00;3.70;102427.00;;;;5025564;28;20464;-79
2022/01/14 09:00:27;;;;;;;31.93;15.97;;;3.10;1.00;3.60;102422.00;;;;5024987;28;20468;-79
2022/01/14 09:02:56;;;;;;;34.03;15.30;;;3.00;1.00;3.60;67046.00;;;;5039400;28;20488;-79
2022/01/14 09:05:25;;;;;;;33.50;16.93;;;3.20;1.00;3.70;102433.00;;;;5037968;28;20986;-80
2022/01/14 09:07:54;;;;;;;26.03;14.27;;;3.00;1.00;3.70;102427.00;;;;5031149;28;20463;-80
2022/01/14 09:10:22;;;;;;;28.60;16.27;;;3.10;1.00;3.80;102429.00;;;;5023380;28;20467;-80
2022/01/14 09:12:52;;;;;;;33.00;16.47;;;3.10;1.00;217.30;158370.00;;;;5024630;28;20487;-79
2022/01/14 09:15:21;;;;;;;27.87;16.63;;;3.30;1.00;3.90;102419.00;;;;5019469;28;20464;-78
2022/01/14 09:17:49;;;;;;;28.83;15.47;;;3.30;1.00;4.10;102417.00;;;;5021422;28;20465;-78
2022/01/14 09:20:18;;;;;;;26.47;15.20;;;3.40;1.00;4.10;102403.00;;;;5021167;28;20477;-79
2022/01/14 09:22:51;;;;;;;26.77;15.30;;;3.40;1.00;4.00;102413.00;;;;5021328;28;20477;-79
2022/01/14 09:25:21;;;;;;;23.97;14.40;;;3.40;1.00;4.00;67140.00;;;;5022477;28;20444;-80
2022/01/14 09:27:52;;;;;;;24.13;14.93;;;3.40;1.00;4.10;102414.00;;;;5028915;28;20474;-80
2022/01/14 09:30:21;;;;;;;24.27;15.77;;;3.40;1.00;4.00;102398.00;;;;5029716;28;20476;-79
2022/01/14 09:32:50;;;;;;;25.70;16.43;;;3.40;1.00;4.00;102408.00;;;;5026984;28;20476;-80
2022/01/14 09:35:20;;;;;;;22.50;14.50;;;3.40;1.00;4.00;102410.00;;;;5023707;28;20486;-79
2022/01/14 09:37:50;;;;;;;21.40;15.17;;;3.30;1.00;4.00;67148.00;;;;5022628;28;20465;-79
2022/01/14 09:40:22;;;;;;;22.57;14.77;;;3.40;1.00;4.10;102417.00;;;;5019914;28;20450;-79
2022/01/14 09:42:53;;;;;;;23.70;16.27;;;3.40;1.00;217.30;158483.00;;;;5020890;28;20832;-79
2022/01/14 09:45:23;;;;;;;24.60;17.60;;;3.50;1.00;4.10;102432.00;;;;5022008;28;20483;-80
2022/01/14 09:47:52;;;;;;;23.13;15.50;;;3.50;1.00;4.10;102431.00;;;;5021147;28;20457;-79
2022/01/14 09:50:21;;;;;;;27.30;18.40;;;3.40;1.00;4.00;102428.00;;;;5023334;28;20464;-79
2022/01/14 09:52:51;;;;;;;24.83;17.10;;;3.40;1.00;4.10;102435.00;;;;5028382;28;20481;-78
2022/01/14 09:55:23;;;;;;;26.00;17.10;;;3.40;1.00;4.10;102431.00;;;;5025444;28;20458;-79
2022/01/14 09:57:54;;;;;;;28.47;17.83;;;3.50;1.00;4.30;102432.00;;;;5022061;28;20826;-80
2022/01/14 10:00:23;;;;;;;26.27;15.70;;;3.60;1.00;4.40;102435.00;;;;5023188;28;20935;-79
2022/01/14 10:02:51;;;;;;;25.17;15.63;;;3.80;1.00;4.50;102448.00;;;;5022442;28;20887;-79
2022/01/14 10:05:35;;;;;;;22.63;15.70;;;3.80;1.00;4.60;102440.00;;;;5021505;28;20449;-78
2022/01/14 10:08:16;;;;;;;24.13;16.00;;;3.90;1.00;4.50;102443.00;;;;5022111;28;20445;-80
2022/01/14 10:10:47;;;;;;;21.13;15.23;;;4.00;1.00;4.60;102437.00;;;;5023539;28;20472;-81
2022/01/14 10:13:22;;;;;;;25.43;16.97;;;4.00;1.00;4.80;102443.00;;;;5019956;28;20503;-78
2022/01/14 10:15:54;;;;;;;29.07;18.43;;;4.10;1.00;4.90;102433.00;;;;5019733;28;20471;-78
2022/01/14 10:18:23;;;;;;;22.13;16.70;;;4.20;1.00;5.10;102419.00;;;;5024367;28;20462;-78
2022/01/14 10:20:52;;;;;;;24.90;17.93;;;4.40;1.00;5.10;67384.00;;;;5020599;28;20481;-78
2022/01/14 10:23:40;;;;;;;25.07;17.97;;;4.50;1.00;5.10;102426.00;;;;5017956;28;20840;-79
2022/01/14 10:26:09;;;;;;;24.97;17.37;;;4.50;1.00;217.30;158836.00;;;;5020138;28;20451;-79
2022/01/14 10:28:39;;;;;;;24.90;18.33;;;4.40;1.00;4.90;102406.00;;;;5020487;28;20457;-78
2022/01/14 10:31:07;;;;;;;27.17;19.47;;;4.30;1.00;4.80;67328.00;;;;5019926;28;20481;-79
2022/01/14 10:33:36;;;;;;;29.73;19.87;;;4.20;1.00;5.00;102437.00;;;;5023470;28;21021;-79
2022/01/14 10:36:06;;;;;;;28.80;18.20;;;4.30;1.00;5.10;102435.00;;;;5022246;28;20461;-78
2022/01/14 10:38:46;;;;;;;26.07;19.63;;;4.40;1.00;5.20;102439.00;;;;5021772;28;20464;-78
2022/01/14 10:41:14;;;;;;;32.00;20.93;;;4.50;1.00;5.20;102423.00;;;;5021273;28;20473;-79
2022/01/14 10:43:45;;;;;;;30.93;21.30;;;4.60;1.00;5.20;102423.00;;;;5018286;28;20465;-79
2022/01/14 10:46:14;;;;;;;27.77;21.17;;;4.50;1.00;5.30;102415.00;;;;5017661;28;20457;-79
2022/01/14 10:48:46;;;;;;;29.60;21.07;;;4.70;1.00;5.40;102409.00;;;;5019663;28;20535;-79
2022/01/14 10:51:18;;;;;;;24.97;18.70;;;4.80;1.00;5.30;102408.00;;;;5018524;28;20497;-80
2022/01/14 10:53:53;;;;;;;26.70;19.00;;;4.70;1.00;5.10;102409.00;;;;5021877;28;20476;-79
2022/01/14 10:56:25;;;;;;;27.77;20.73;;;4.60;1.00;5.10;102411.00;;;;5024939;28;20459;-79
2022/01/14 10:58:59;;;;;;;30.00;21.00;;;4.50;1.00;5.00;102398.00;;;;5027607;28;20492;-79
2022/01/14 11:01:30;;;;;;;29.40;21.13;;;4.40;1.00;5.00;67373.00;;;;5025298;28;20480;-79
2022/01/14 11:04:01;;;;;;;28.60;21.40;;;4.40;1.00;5.00;102399.00;;;;5029369;28;20453;-79
2022/01/14 11:06:32;;;;;;;30.93;22.07;;;4.40;1.00;5.20;102397.00;;;;5035417;28;20473;-79
2022/01/14 11:09:08;;;;;;;31.53;21.67;;;4.50;1.00;5.20;102385.00;;;;5032890;28;20453;-79
2022/01/14 11:11:39;;;;;;;27.90;21.67;;;4.50;1.00;5.30;102393.00;;;;5030430;28;20490;-79
2022/01/14 11:14:09;;;;;;;27.10;21.17;;;4.70;1.00;52.70;158947.00;;;;5025170;28;20472;-80
2022/01/14 11:16:39;;;;;;;25.57;19.77;;;4.70;1.00;5.30;102367.00;;;;5034238;28;20449;-81
2022/01/14 11:19:09;;;;;;;31.40;21.10;;;4.70;1.00;5.10;67388.00;;;;5034131;28;20456;-80
2022/01/14 11:24:29;;;;;;;25.87;19.40;;;4.40;1.00;4.80;67314.00;;;;5034160;28;20549;-81